createdAt,value
2018-12-17T00:02:15.912Z,99629.98
2018-12-17T00:07:20.512Z,99631.72
2018-12-17T00:12:25.452Z,99643.02
2018-12-17T00:17:29.992Z,99640.49
2018-12-17T00:22:34.532Z,99654.29
2018-12-17T00:27:39.012Z,99654.91
2018-12-17T00:32:43.632Z,99649.89
2018-12-17T00:37:48.212Z,99660.39
2018-12-17T00:42:52.852Z,99660.23
2018-12-17T00:53:35.613Z,99663.48
2018-12-17T00:58:40.189Z,99679.41
2018-12-17T01:03:44.635Z,99680.50
2018-12-17T01:08:49.184Z,99683.44
2018-12-17T01:13:54.205Z,99693.39
2018-12-17T01:18:58.749Z,99692.19
2018-12-17T01:24:03.285Z,99698.77
2018-12-17T01:29:07.758Z,99697.00
2018-12-17T01:34:12.150Z,99703.00
2018-12-17T01:39:16.815Z,99714.41
2018-12-17T01:44:21.491Z,99715.36
2018-12-17T01:49:26.036Z,99722.69
2018-12-17T01:54:30.569Z,99727.00
2018-12-17T01:59:35.089Z,99741.41
2018-12-17T02:04:39.614Z,99749.86
2018-12-17T02:09:43.976Z,99756.23
2018-12-17T02:14:48.371Z,99762.48
2018-12-17T02:19:52.754Z,99766.54
2018-12-17T02:24:57.295Z,99766.94
2018-12-17T02:30:01.748Z,99764.17
2018-12-17T02:35:06.538Z,99768.02
2018-12-17T02:40:11.199Z,99778.16
2018-12-17T02:45:15.780Z,99781.57
2018-12-17T02:50:20.275Z,99778.74
2018-12-17T02:55:25.291Z,99780.07
2018-12-17T03:00:29.740Z,99778.56
2018-12-17T03:05:34.335Z,99784.47
2018-12-17T03:10:38.805Z,99787.56
2018-12-17T03:15:43.169Z,99793.47
2018-12-17T03:20:47.564Z,99797.79
2018-12-17T03:25:52.078Z,99796.30
2018-12-17T03:30:56.473Z,99792.95
2018-12-17T03:36:01.020Z,99787.38
2018-12-17T03:41:23.001Z,99797.57
2018-12-17T03:46:27.773Z,99814.05
2018-12-17T03:51:32.267Z,99820.95
2018-12-17T03:56:36.722Z,99829.02
2018-12-17T04:01:41.226Z,99836.13
2018-12-17T04:06:45.791Z,99844.95
2018-12-17T04:11:50.256Z,99853.56
2018-12-17T04:16:54.736Z,99868.27
2018-12-17T04:21:59.181Z,99870.31
2018-12-17T04:27:03.640Z,99864.59
2018-12-17T04:32:07.990Z,99861.30
2018-12-17T04:37:12.595Z,99866.80
2018-12-17T04:42:17.220Z,99869.16
2018-12-17T04:47:21.836Z,99870.89
2018-12-17T04:52:26.386Z,99870.31
2018-12-17T04:57:30.922Z,99864.05
2018-12-17T05:02:35.276Z,99887.27
2018-12-17T05:07:39.722Z,99898.16
2018-12-17T05:12:44.347Z,99896.66
2018-12-17T05:17:48.811Z,99891.50
2018-12-17T05:22:53.278Z,99888.55
2018-12-17T05:27:57.830Z,99894.16
2018-12-17T05:33:03.191Z,99890.88
2018-12-17T05:38:07.567Z,99894.36
2018-12-17T05:43:12.089Z,99899.03
2018-12-17T05:48:16.727Z,99907.11
2018-12-17T05:53:21.400Z,99915.05
2018-12-17T05:58:26.455Z,99913.02
2018-12-17T06:03:30.992Z,99920.61
2018-12-17T06:08:35.591Z,99924.59
2018-12-17T06:13:40.215Z,99931.33
2018-12-17T06:18:44.755Z,99935.32
2018-12-17T06:23:49.341Z,99936.90
2018-12-17T06:28:53.831Z,99936.86
2018-12-17T06:33:58.210Z,99934.39
2018-12-17T06:39:02.718Z,99925.48
2018-12-17T06:44:07.211Z,99925.89
2018-12-17T06:49:11.816Z,99942.03
2018-12-17T06:54:16.480Z,99952.91
2018-12-17T06:59:20.925Z,99946.85
2018-12-17T07:04:25.422Z,99952.39
2018-12-17T07:09:29.931Z,99958.75
2018-12-17T07:14:36.568Z,99952.58
2018-12-17T07:19:40.651Z,99946.97
2018-12-17T07:24:45.201Z,99950.73
2018-12-17T07:29:50.140Z,99951.39
2018-12-17T07:34:54.770Z,99951.12
2018-12-17T07:39:59.308Z,99960.58
2018-12-17T07:45:05.234Z,99964.66
2018-12-17T07:50:10.161Z,99960.14
2018-12-17T07:55:14.731Z,99962.91
2018-12-17T08:00:19.356Z,99961.18
2018-12-17T08:05:23.877Z,99954.80
2018-12-17T08:10:28.421Z,99958.59
2018-12-17T08:15:32.941Z,99955.72
2018-12-17T08:20:37.421Z,99966.36
2018-12-17T08:25:41.942Z,99968.02
2018-12-17T08:30:46.433Z,99977.09
2018-12-17T08:35:50.821Z,99979.42
2018-12-17T08:40:55.446Z,99978.83
2018-12-17T08:45:59.962Z,99970.45
2018-12-17T08:51:04.547Z,99975.86
2018-12-17T08:56:09.086Z,99976.87
2018-12-17T09:01:13.569Z,99974.81
2018-12-17T09:06:18.161Z,99973.96
2018-12-17T09:11:22.646Z,99971.44
2018-12-17T09:16:27.166Z,99983.64
2018-12-17T09:21:31.673Z,99985.05
2018-12-17T09:26:36.221Z,99982.91
2018-12-17T09:31:40.756Z,99991.27
2018-12-17T09:36:45.267Z,100000.70
2018-12-17T09:41:49.808Z,100005.58
2018-12-17T09:46:54.281Z,100006.55
2018-12-17T09:51:58.907Z,100020.67
2018-12-17T09:57:03.364Z,100022.06
2018-12-17T10:02:07.906Z,100025.42
2018-12-17T10:07:12.487Z,100029.43
2018-12-17T10:12:16.947Z,100032.84
2018-12-17T10:17:21.402Z,100031.31
2018-12-17T10:22:26.777Z,100026.08
2018-12-17T10:27:31.393Z,100024.94
2018-12-17T10:32:36.217Z,100022.95
2018-12-17T10:37:40.837Z,100024.99
2018-12-17T10:42:45.351Z,100006.84
2018-12-17T10:47:49.726Z,100016.58
2018-12-17T10:52:54.271Z,100018.75
2018-12-17T10:57:58.791Z,100010.44
2018-12-17T11:03:07.233Z,100005.39
2018-12-17T11:08:11.786Z,100011.14
2018-12-17T11:13:16.311Z,100004.81
2018-12-17T11:18:20.771Z,100004.16
2018-12-17T11:23:25.253Z,100002.67
2018-12-17T11:28:29.816Z,99976.42
2018-12-17T11:33:34.666Z,99981.17
2018-12-17T11:38:39.271Z,99971.42
2018-12-17T11:43:44.201Z,99962.91
2018-12-17T11:48:49.061Z,99955.44
2018-12-17T11:53:53.576Z,99952.84
2018-12-17T11:58:58.019Z,99951.42
2018-12-17T12:04:02.434Z,99945.58
2018-12-17T12:09:07.200Z,99931.12
2018-12-17T12:14:11.726Z,99931.26
2018-12-17T12:19:16.407Z,99934.21
2018-12-17T12:24:20.891Z,99927.97
2018-12-17T12:29:25.201Z,99913.38
2018-12-17T12:34:29.768Z,99906.70
2018-12-17T12:39:34.506Z,99903.09
2018-12-17T12:44:38.734Z,99896.18
2018-12-17T12:49:43.351Z,99865.99
2018-12-17T12:54:47.867Z,99873.47
2018-12-17T12:59:52.223Z,99865.33
2018-12-17T13:04:56.936Z,99863.84
2018-12-17T13:10:01.438Z,99858.27
2018-12-17T13:15:07.322Z,99854.31
2018-12-17T13:20:12.076Z,99859.27
2018-12-17T13:25:20.368Z,99847.19
2018-12-17T13:30:24.972Z,99844.02
2018-12-17T13:35:29.331Z,99851.97
2018-12-17T13:40:33.867Z,99845.62
2018-12-17T13:45:38.176Z,99845.48
2018-12-17T13:50:42.548Z,99836.34
2018-12-17T13:55:47.022Z,99822.48
2018-12-17T14:00:51.407Z,99819.70
2018-12-17T14:05:55.978Z,99815.20
2018-12-17T14:11:00.322Z,99815.41
2018-12-17T14:16:08.952Z,99817.53
2018-12-17T14:21:17.597Z,99809.73
2018-12-17T14:26:22.186Z,99807.95
2018-12-17T14:31:28.987Z,99802.28
2018-12-17T14:36:33.697Z,99799.43
2018-12-17T14:41:38.637Z,99793.88
2018-12-17T14:46:47.157Z,99795.33
2018-12-17T14:51:51.765Z,99792.14
2018-12-17T14:56:56.284Z,99771.70
2018-12-17T15:02:00.818Z,99754.80
2018-12-17T15:07:05.429Z,99749.58
2018-12-17T15:12:09.754Z,99744.33
2018-12-17T15:17:14.287Z,99746.62
2018-12-17T15:22:18.663Z,99748.23
2018-12-17T15:27:23.234Z,99742.17
2018-12-17T15:32:27.838Z,99760.87
2018-12-17T15:37:32.436Z,99761.41
2018-12-17T15:42:40.835Z,99745.84
2018-12-17T15:47:43.444Z,99750.24
2018-12-17T15:52:48.017Z,99730.20
2018-12-17T15:57:52.707Z,99755.47
2018-12-17T16:02:57.213Z,99752.34
2018-12-17T16:08:01.788Z,99755.41
2018-12-17T16:13:06.232Z,99756.25
2018-12-17T16:18:10.737Z,99764.15
2018-12-17T16:23:15.221Z,99771.77
2018-12-17T16:28:20.142Z,99793.94
2018-12-17T16:33:29.869Z,99762.30
2018-12-17T16:38:31.157Z,99759.56
2018-12-17T16:43:35.668Z,99737.37
2018-12-17T16:48:40.253Z,99728.08
2018-12-17T16:53:44.675Z,99720.00
2018-12-17T16:58:49.335Z,99716.94
2018-12-17T17:03:53.896Z,99728.41
2018-12-17T17:08:58.969Z,99723.49
2018-12-17T17:14:03.576Z,99719.55
2018-12-17T17:19:07.995Z,99704.42
2018-12-17T17:24:12.475Z,99706.70
2018-12-17T17:29:16.996Z,99704.91
2018-12-17T17:34:21.477Z,99708.80
2018-12-17T17:39:26.054Z,99696.02
2018-12-17T17:44:30.575Z,99703.09
2018-12-17T17:49:35.135Z,99702.18
2018-12-17T17:54:39.717Z,99685.17
2018-12-17T17:59:44.496Z,99685.56
2018-12-17T18:04:49.035Z,99689.19
2018-12-17T18:09:53.635Z,99692.58
2018-12-17T18:14:58.115Z,99675.21
2018-12-17T18:20:02.519Z,99683.23
2018-12-17T18:25:07.235Z,99673.32
2018-12-17T18:30:11.636Z,99672.87
2018-12-17T18:35:16.054Z,99660.97
2018-12-17T18:40:20.615Z,99643.53
2018-12-17T18:45:25.214Z,99655.95
2018-12-17T18:50:29.795Z,99663.52
2018-12-17T18:55:34.715Z,99661.66
2018-12-17T19:00:39.591Z,99629.66
2018-12-17T19:05:44.187Z,99640.08
2018-12-17T19:10:52.097Z,99637.34
2018-12-17T19:15:56.687Z,99644.88
2018-12-17T19:21:01.255Z,99642.27
2018-12-17T19:31:36.383Z,99624.89
2018-12-17T19:36:40.908Z,99621.83
2018-12-17T19:41:45.352Z,99612.55
2018-12-17T19:46:49.951Z,99616.03
2018-12-17T19:51:54.372Z,99600.33
2018-12-17T19:56:58.873Z,99590.91
2018-12-17T20:02:03.493Z,99561.45
2018-12-17T20:07:08.153Z,99567.64
2018-12-17T20:12:12.694Z,99542.19
2018-12-17T20:17:17.152Z,99553.75
2018-12-17T20:22:21.752Z,99547.59
2018-12-17T20:27:26.192Z,99531.50
2018-12-17T20:38:04.684Z,99527.95
2018-12-17T20:43:09.294Z,99512.47
2018-12-17T20:48:13.952Z,99506.98
2018-12-17T20:53:18.494Z,99514.06
2018-12-17T20:58:23.088Z,99510.05
2018-12-17T21:03:28.472Z,99508.33
2018-12-17T21:08:33.073Z,99513.11
2018-12-17T21:13:37.592Z,99483.65
2018-12-17T21:18:42.345Z,99508.97
2018-12-17T21:23:47.032Z,99471.95
2018-12-17T21:28:51.585Z,99482.01
2018-12-17T21:33:56.172Z,99484.61
2018-12-17T21:39:00.556Z,99473.53
2018-12-17T21:44:05.233Z,99480.60
2018-12-17T21:49:09.752Z,99459.61
2018-12-17T21:54:14.272Z,99447.05
2018-12-17T21:59:18.912Z,99438.33
2018-12-17T22:04:23.652Z,99421.03
2018-12-17T22:09:28.248Z,99403.34
2018-12-17T22:14:34.152Z,99413.71
2018-12-17T22:19:38.592Z,99408.75
2018-12-17T22:24:43.231Z,99417.16
2018-12-17T22:29:47.852Z,99408.36
2018-12-17T22:34:52.511Z,99403.41
2018-12-17T22:39:57.141Z,99407.73
2018-12-17T22:45:01.779Z,99390.44
2018-12-17T22:50:07.053Z,99353.48
2018-12-17T22:55:11.690Z,99368.52
2018-12-17T23:00:16.231Z,99373.30
2018-12-17T23:05:20.931Z,99370.49
2018-12-17T23:16:03.372Z,99341.69
2018-12-17T23:21:07.991Z,99363.56
2018-12-17T23:26:12.606Z,99332.83
2018-12-17T23:31:17.062Z,99332.44
2018-12-17T23:36:21.683Z,99295.56
2018-12-17T23:41:26.188Z,99296.58
2018-12-17T23:46:30.728Z,99283.22
2018-12-17T23:51:35.373Z,99280.23
2018-12-17T23:56:40.003Z,99285.58
